sensor_id;sensor_type;location;lat;lon;timestamp;temperature;humidity
62991;DHT22;49084;48.204;16.202;2024-03-25T00:01:19;5.90;99.90
62991;DHT22;49084;48.204;16.202;2024-03-25T00:03:44;5.90;99.90
62991;DHT22;49084;48.204;16.202;2024-03-25T00:06:10;5.90;99.90
62991;DHT22;49084;48.204;16.202;2024-03-25T00:08:36;5.90;99.90
62991;DHT22;49084;48.204;16.202;2024-03-25T00:11:02;5.90;99.90
62991;DHT22;49084;48.204;16.202;2024-03-25T00:13:27;5.90;99.90
62991;DHT22;49084;48.204;16.202;2024-03-25T00:15:53;5.90;99.90
62991;DHT22;49084;48.204;16.202;2024-03-25T00:18:19;5.90;99.90
62991;DHT22;49084;48.204;16.202;2024-03-25T00:20:44;5.90;99.90
62991;DHT22;49084;48.204;16.202;2024-03-25T00:23:10;5.90;99.90
62991;DHT22;49084;48.204;16.202;2024-03-25T00:25:37;5.90;99.90
62991;DHT22;49084;48.204;16.202;2024-03-25T00:28:03;6.00;99.90
62991;DHT22;49084;48.204;16.202;2024-03-25T00:30:29;5.90;99.90
62991;DHT22;49084;48.204;16.202;2024-03-25T00:32:55;5.90;99.90
62991;DHT22;49084;48.204;16.202;2024-03-25T00:35:21;5.90;99.90
62991;DHT22;49084;48.204;16.202;2024-03-25T00:37:46;5.90;99.90
62991;DHT22;49084;48.204;16.202;2024-03-25T00:40:12;5.90;99.90
62991;DHT22;49084;48.204;16.202;2024-03-25T00:42:38;5.80;99.90
62991;DHT22;49084;48.204;16.202;2024-03-25T00:45:04;5.80;99.90
62991;DHT22;49084;48.204;16.202;2024-03-25T00:47:33;5.80;99.90
62991;DHT22;49084;48.204;16.202;2024-03-25T00:49:58;5.80;99.90
62991;DHT22;49084;48.204;16.202;2024-03-25T00:52:24;5.80;99.90
62991;DHT22;49084;48.204;16.202;2024-03-25T00:54:50;5.80;99.90
62991;DHT22;49084;48.204;16.202;2024-03-25T00:57:15;5.80;99.90
62991;DHT22;49084;48.204;16.202;2024-03-25T00:59:41;5.80;99.90
62991;DHT22;49084;48.204;16.202;2024-03-25T01:02:07;5.70;99.90
62991;DHT22;49084;48.204;16.202;2024-03-25T01:04:33;5.70;99.90
62991;DHT22;49084;48.204;16.202;2024-03-25T01:06:59;5.70;99.90
62991;DHT22;49084;48.204;16.202;2024-03-25T01:09:25;5.60;99.90
62991;DHT22;49084;48.204;16.202;2024-03-25T01:11:51;5.70;99.90
62991;DHT22;49084;48.204;16.202;2024-03-25T01:14:16;5.60;99.90
62991;DHT22;49084;48.204;16.202;2024-03-25T01:16:42;5.60;99.90
62991;DHT22;49084;48.204;16.202;2024-03-25T01:19:08;5.60;99.90
62991;DHT22;49084;48.204;16.202;2024-03-25T01:21:34;5.70;99.90
62991;DHT22;49084;48.204;16.202;2024-03-25T01:24:00;5.70;99.90
62991;DHT22;49084;48.204;16.202;2024-03-25T01:26:26;5.60;99.90
62991;DHT22;49084;48.204;16.202;2024-03-25T01:28:52;5.70;99.90
62991;DHT22;49084;48.204;16.202;2024-03-25T01:31:18;5.70;99.90
62991;DHT22;49084;48.204;16.202;2024-03-25T01:33:45;5.70;99.90
62991;DHT22;49084;48.204;16.202;2024-03-25T01:36:10;5.70;99.90
62991;DHT22;49084;48.204;16.202;2024-03-25T01:38:41;5.70;99.90
62991;DHT22;49084;48.204;16.202;2024-03-25T01:41:11;5.70;99.90
62991;DHT22;49084;48.204;16.202;2024-03-25T01:43:38;5.70;99.90
62991;DHT22;49084;48.204;16.202;2024-03-25T01:46:04;5.70;99.90
62991;DHT22;49084;48.204;16.202;2024-03-25T01:48:31;5.70;99.90
62991;DHT22;49084;48.204;16.202;2024-03-25T01:50:58;5.70;99.90
62991;DHT22;49084;48.204;16.202;2024-03-25T01:53:24;5.70;99.90
62991;DHT22;49084;48.204;16.202;2024-03-25T01:55:52;5.70;99.90
62991;DHT22;49084;48.204;16.202;2024-03-25T01:58:21;5.70;99.90
62991;DHT22;49084;48.204;16.202;2024-03-25T02:00:48;5.70;99.90
62991;DHT22;49084;48.204;16.202;2024-03-25T02:03:15;5.70;99.90
62991;DHT22;49084;48.204;16.202;2024-03-25T02:05:41;5.60;99.90
62991;DHT22;49084;48.204;16.202;2024-03-25T02:08:06;5.60;99.90
62991;DHT22;49084;48.204;16.202;2024-03-25T02:10:32;5.60;99.90
62991;DHT22;49084;48.204;16.202;2024-03-25T02:12:58;5.60;99.90
62991;DHT22;49084;48.204;16.202;2024-03-25T02:15:24;5.60;99.90
62991;DHT22;49084;48.204;16.202;2024-03-25T02:17:52;5.60;99.90
62991;DHT22;49084;48.204;16.202;2024-03-25T02:20:17;5.60;99.90
62991;DHT22;49084;48.204;16.202;2024-03-25T02:22:43;5.50;99.90
62991;DHT22;49084;48.204;16.202;2024-03-25T02:25:10;5.50;99.90
62991;DHT22;49084;48.204;16.202;2024-03-25T02:27:37;5.40;99.90
62991;DHT22;49084;48.204;16.202;2024-03-25T02:30:13;5.40;99.90
62991;DHT22;49084;48.204;16.202;2024-03-25T02:32:39;5.40;99.90
62991;DHT22;49084;48.204;16.202;2024-03-25T02:35:07;5.30;99.90
62991;DHT22;49084;48.204;16.202;2024-03-25T02:37:36;5.30;99.90
62991;DHT22;49084;48.204;16.202;2024-03-25T02:40:02;5.30;99.90
62991;DHT22;49084;48.204;16.202;2024-03-25T02:42:31;5.30;99.90
62991;DHT22;49084;48.204;16.202;2024-03-25T02:44:58;5.30;99.90
62991;DHT22;49084;48.204;16.202;2024-03-25T02:47:24;5.30;99.90
62991;DHT22;49084;48.204;16.202;2024-03-25T02:49:50;5.30;99.90
62991;DHT22;49084;48.204;16.202;2024-03-25T02:52:17;5.30;99.90
62991;DHT22;49084;48.204;16.202;2024-03-25T02:54:42;5.30;99.90
62991;DHT22;49084;48.204;16.202;2024-03-25T02:57:08;5.30;99.90
62991;DHT22;49084;48.204;16.202;2024-03-25T02:59:34;5.20;99.90
62991;DHT22;49084;48.204;16.202;2024-03-25T03:01:59;5.20;99.90
62991;DHT22;49084;48.204;16.202;2024-03-25T03:04:25;5.20;99.90
62991;DHT22;49084;48.204;16.202;2024-03-25T03:06:50;5.20;99.90
62991;DHT22;49084;48.204;16.202;2024-03-25T03:09:16;5.10;99.90
62991;DHT22;49084;48.204;16.202;2024-03-25T03:11:42;5.20;99.90
62991;DHT22;49084;48.204;16.202;2024-03-25T03:14:07;5.20;99.90
62991;DHT22;49084;48.204;16.202;2024-03-25T03:16:33;5.20;99.90
62991;DHT22;49084;48.204;16.202;2024-03-25T03:18:58;5.10;99.90
62991;DHT22;49084;48.204;16.202;2024-03-25T03:21:24;5.10;99.90
62991;DHT22;49084;48.204;16.202;2024-03-25T03:23:50;5.10;99.90
62991;DHT22;49084;48.204;16.202;2024-03-25T03:26:15;5.10;99.90
62991;DHT22;49084;48.204;16.202;2024-03-25T03:28:41;5.20;99.90
62991;DHT22;49084;48.204;16.202;2024-03-25T03:31:07;5.10;99.90
62991;DHT22;49084;48.204;16.202;2024-03-25T03:33:32;5.20;99.90
62991;DHT22;49084;48.204;16.202;2024-03-25T03:35:58;5.20;99.90
62991;DHT22;49084;48.204;16.202;2024-03-25T03:38:24;5.20;99.90
62991;DHT22;49084;48.204;16.202;2024-03-25T03:41:00;5.30;99.90
62991;DHT22;49084;48.204;16.202;2024-03-25T03:43:26;5.30;99.90
62991;DHT22;49084;48.204;16.202;2024-03-25T03:45:51;5.50;99.90
62991;DHT22;49084;48.204;16.202;2024-03-25T03:48:17;5.30;99.90
62991;DHT22;49084;48.204;16.202;2024-03-25T03:50:43;5.40;99.90
62991;DHT22;49084;48.204;16.202;2024-03-25T03:53:09;5.40;99.90
62991;DHT22;49084;48.204;16.202;2024-03-25T03:55:34;5.30;99.90
62991;DHT22;49084;48.204;16.202;2024-03-25T03:58:01;5.30;99.90
62991;DHT22;49084;48.204;16.202;2024-03-25T04:00:26;5.30;99.90
62991;DHT22;49084;48.204;16.202;2024-03-25T04:02:53;5.40;99.90
62991;DHT22;49084;48.204;16.202;2024-03-25T04:05:18;5.40;99.90
62991;DHT22;49084;48.204;16.202;2024-03-25T04:07:44;5.50;99.90
62991;DHT22;49084;48.204;16.202;2024-03-25T04:10:10;5.50;99.90
62991;DHT22;49084;48.204;16.202;2024-03-25T04:12:36;5.50;99.90
62991;DHT22;49084;48.204;16.202;2024-03-25T04:15:04;5.50;99.90
62991;DHT22;49084;48.204;16.202;2024-03-25T04:17:30;5.60;99.90
62991;DHT22;49084;48.204;16.202;2024-03-25T04:19:59;5.60;99.90
62991;DHT22;49084;48.204;16.202;2024-03-25T04:22:31;5.70;99.90
62991;DHT22;49084;48.204;16.202;2024-03-25T04:24:57;5.70;99.90
62991;DHT22;49084;48.204;16.202;2024-03-25T04:27:22;5.70;99.90
62991;DHT22;49084;48.204;16.202;2024-03-25T04:29:51;5.70;99.90
62991;DHT22;49084;48.204;16.202;2024-03-25T04:32:16;5.70;99.90
62991;DHT22;49084;48.204;16.202;2024-03-25T04:34:42;5.70;99.90
62991;DHT22;49084;48.204;16.202;2024-03-25T04:37:09;5.70;99.90
62991;DHT22;49084;48.204;16.202;2024-03-25T04:39:35;5.70;99.90
62991;DHT22;49084;48.204;16.202;2024-03-25T04:42:00;5.70;99.90
62991;DHT22;49084;48.204;16.202;2024-03-25T04:44:27;5.70;99.90
62991;DHT22;49084;48.204;16.202;2024-03-25T04:46:53;5.70;99.90
62991;DHT22;49084;48.204;16.202;2024-03-25T04:49:18;5.70;99.90
62991;DHT22;49084;48.204;16.202;2024-03-25T04:51:44;5.70;99.90
62991;DHT22;49084;48.204;16.202;2024-03-25T04:54:10;5.70;99.90
62991;DHT22;49084;48.204;16.202;2024-03-25T04:56:35;5.70;99.90
62991;DHT22;49084;48.204;16.202;2024-03-25T04:59:01;5.70;99.90
62991;DHT22;49084;48.204;16.202;2024-03-25T05:01:30;5.70;99.90
62991;DHT22;49084;48.204;16.202;2024-03-25T05:03:56;5.80;99.90
62991;DHT22;49084;48.204;16.202;2024-03-25T05:06:21;5.80;99.90
62991;DHT22;49084;48.204;16.202;2024-03-25T05:08:47;5.80;99.90
62991;DHT22;49084;48.204;16.202;2024-03-25T05:11:12;5.80;99.90
62991;DHT22;49084;48.204;16.202;2024-03-25T05:13:38;5.90;99.90
62991;DHT22;49084;48.204;16.202;2024-03-25T05:16:04;5.90;99.90
62991;DHT22;49084;48.204;16.202;2024-03-25T05:18:30;5.90;99.90
62991;DHT22;49084;48.204;16.202;2024-03-25T05:20:55;5.90;99.90
62991;DHT22;49084;48.204;16.202;2024-03-25T05:23:21;5.90;99.90
62991;DHT22;49084;48.204;16.202;2024-03-25T05:25:46;6.00;99.90
62991;DHT22;49084;48.204;16.202;2024-03-25T05:28:12;6.00;99.90
62991;DHT22;49084;48.204;16.202;2024-03-25T05:30:38;6.10;99.90
62991;DHT22;49084;48.204;16.202;2024-03-25T05:33:04;6.20;99.90
62991;DHT22;49084;48.204;16.202;2024-03-25T05:35:30;6.30;99.90
62991;DHT22;49084;48.204;16.202;2024-03-25T05:37:58;6.30;99.90
62991;DHT22;49084;48.204;16.202;2024-03-25T05:40:24;6.30;99.90
62991;DHT22;49084;48.204;16.202;2024-03-25T05:42:49;6.30;99.90
62991;DHT22;49084;48.204;16.202;2024-03-25T05:45:15;6.40;99.90
62991;DHT22;49084;48.204;16.202;2024-03-25T05:47:41;6.40;99.90
62991;DHT22;49084;48.204;16.202;2024-03-25T05:50:07;6.40;99.90
62991;DHT22;49084;48.204;16.202;2024-03-25T05:52:33;6.40;99.90
62991;DHT22;49084;48.204;16.202;2024-03-25T05:54:59;6.50;99.90
62991;DHT22;49084;48.204;16.202;2024-03-25T05:57:24;6.50;99.90
62991;DHT22;49084;48.204;16.202;2024-03-25T05:59:50;6.50;99.90
62991;DHT22;49084;48.204;16.202;2024-03-25T06:02:16;6.60;99.90
62991;DHT22;49084;48.204;16.202;2024-03-25T06:04:41;6.70;99.90
62991;DHT22;49084;48.204;16.202;2024-03-25T06:07:07;6.70;99.90
62991;DHT22;49084;48.204;16.202;2024-03-25T06:09:32;6.80;99.90
62991;DHT22;49084;48.204;16.202;2024-03-25T06:11:58;6.90;99.90
62991;DHT22;49084;48.204;16.202;2024-03-25T06:14:24;7.00;99.90
62991;DHT22;49084;48.204;16.202;2024-03-25T06:16:49;7.10;99.90
62991;DHT22;49084;48.204;16.202;2024-03-25T06:19:15;7.30;99.90
62991;DHT22;49084;48.204;16.202;2024-03-25T06:21:41;7.60;99.90
62991;DHT22;49084;48.204;16.202;2024-03-25T06:24:08;7.80;99.90
62991;DHT22;49084;48.204;16.202;2024-03-25T06:26:34;7.80;99.90
62991;DHT22;49084;48.204;16.202;2024-03-25T06:29:00;7.70;99.90
62991;DHT22;49084;48.204;16.202;2024-03-25T06:31:26;7.70;99.90
62991;DHT22;49084;48.204;16.202;2024-03-25T06:34:10;7.60;99.90
62991;DHT22;49084;48.204;16.202;2024-03-25T06:36:47;7.60;99.90
62991;DHT22;49084;48.204;16.202;2024-03-25T06:39:14;7.70;99.90
62991;DHT22;49084;48.204;16.202;2024-03-25T06:41:40;7.70;99.90
62991;DHT22;49084;48.204;16.202;2024-03-25T06:44:05;7.70;99.90
62991;DHT22;49084;48.204;16.202;2024-03-25T06:46:31;7.60;99.90
62991;DHT22;49084;48.204;16.202;2024-03-25T06:48:57;7.60;99.90
62991;DHT22;49084;48.204;16.202;2024-03-25T06:51:23;7.60;99.90
62991;DHT22;49084;48.204;16.202;2024-03-25T06:53:48;7.70;99.90
62991;DHT22;49084;48.204;16.202;2024-03-25T06:56:14;7.80;99.90
62991;DHT22;49084;48.204;16.202;2024-03-25T06:58:40;7.80;99.90
62991;DHT22;49084;48.204;16.202;2024-03-25T07:01:07;7.90;99.90
62991;DHT22;49084;48.204;16.202;2024-03-25T07:03:33;8.10;99.90
62991;DHT22;49084;48.204;16.202;2024-03-25T07:05:59;8.30;99.90
62991;DHT22;49084;48.204;16.202;2024-03-25T07:08:26;8.50;99.90
62991;DHT22;49084;48.204;16.202;2024-03-25T07:10:52;8.90;99.90
62991;DHT22;49084;48.204;16.202;2024-03-25T07:13:18;9.10;99.90
62991;DHT22;49084;48.204;16.202;2024-03-25T07:15:44;9.30;99.90
62991;DHT22;49084;48.204;16.202;2024-03-25T07:18:10;9.40;99.10
62991;DHT22;49084;48.204;16.202;2024-03-25T07:20:43;9.70;98.60
62991;DHT22;49084;48.204;16.202;2024-03-25T07:23:09;9.50;98.20
62991;DHT22;49084;48.204;16.202;2024-03-25T07:25:35;9.40;98.40
62991;DHT22;49084;48.204;16.202;2024-03-25T07:28:01;9.40;98.20
62991;DHT22;49084;48.204;16.202;2024-03-25T07:30:27;9.50;98.30
62991;DHT22;49084;48.204;16.202;2024-03-25T07:32:58;9.70;97.80
62991;DHT22;49084;48.204;16.202;2024-03-25T07:35:24;9.50;97.40
62991;DHT22;49084;48.204;16.202;2024-03-25T07:37:50;9.80;97.40
62991;DHT22;49084;48.204;16.202;2024-03-25T07:40:19;9.80;97.10
62991;DHT22;49084;48.204;16.202;2024-03-25T07:42:44;10.10;96.30
62991;DHT22;49084;48.204;16.202;2024-03-25T07:45:10;9.90;96.90
62991;DHT22;49084;48.204;16.202;2024-03-25T07:47:36;10.50;96.20
62991;DHT22;49084;48.204;16.202;2024-03-25T07:50:02;10.70;94.60
62991;DHT22;49084;48.204;16.202;2024-03-25T07:52:28;10.60;94.40
62991;DHT22;49084;48.204;16.202;2024-03-25T07:54:54;10.70;94.80
62991;DHT22;49084;48.204;16.202;2024-03-25T07:57:20;11.10;95.60
62991;DHT22;49084;48.204;16.202;2024-03-25T07:59:46;11.40;94.00
62991;DHT22;49084;48.204;16.202;2024-03-25T08:02:12;11.60;94.50
62991;DHT22;49084;48.204;16.202;2024-03-25T08:04:37;11.90;92.80
62991;DHT22;49084;48.204;16.202;2024-03-25T08:07:03;11.80;93.10
62991;DHT22;49084;48.204;16.202;2024-03-25T08:09:29;11.90;92.20
62991;DHT22;49084;48.204;16.202;2024-03-25T08:11:54;11.90;91.80
62991;DHT22;49084;48.204;16.202;2024-03-25T08:14:20;11.70;91.20
62991;DHT22;49084;48.204;16.202;2024-03-25T08:16:46;12.10;91.90
62991;DHT22;49084;48.204;16.202;2024-03-25T08:19:12;11.80;90.50
62991;DHT22;49084;48.204;16.202;2024-03-25T08:21:37;11.60;91.00
62991;DHT22;49084;48.204;16.202;2024-03-25T08:24:03;11.80;90.60
62991;DHT22;49084;48.204;16.202;2024-03-25T08:26:29;11.60;90.40
62991;DHT22;49084;48.204;16.202;2024-03-25T08:28:55;11.20;91.00
62991;DHT22;49084;48.204;16.202;2024-03-25T08:31:20;11.00;91.40
62991;DHT22;49084;48.204;16.202;2024-03-25T08:33:46;11.10;91.40
62991;DHT22;49084;48.204;16.202;2024-03-25T08:36:12;11.40;91.50
62991;DHT22;49084;48.204;16.202;2024-03-25T08:38:37;11.80;90.50
62991;DHT22;49084;48.204;16.202;2024-03-25T08:41:03;12.10;89.60
62991;DHT22;49084;48.204;16.202;2024-03-25T08:43:29;12.70;88.70
62991;DHT22;49084;48.204;16.202;2024-03-25T08:45:55;12.60;87.50
62991;DHT22;49084;48.204;16.202;2024-03-25T08:48:20;13.00;86.40
62991;DHT22;49084;48.204;16.202;2024-03-25T08:50:46;13.40;83.40
62991;DHT22;49084;48.204;16.202;2024-03-25T08:53:12;13.20;82.60
62991;DHT22;49084;48.204;16.202;2024-03-25T08:55:38;12.70;84.70
62991;DHT22;49084;48.204;16.202;2024-03-25T08:58:03;12.30;83.40
62991;DHT22;49084;48.204;16.202;2024-03-25T09:00:29;11.80;84.30
62991;DHT22;49084;48.204;16.202;2024-03-25T09:02:55;11.60;85.40
62991;DHT22;49084;48.204;16.202;2024-03-25T09:05:21;11.80;83.80
62991;DHT22;49084;48.204;16.202;2024-03-25T09:07:50;11.90;83.80
62991;DHT22;49084;48.204;16.202;2024-03-25T09:10:18;11.80;83.20
62991;DHT22;49084;48.204;16.202;2024-03-25T09:13:02;12.20;82.90
62991;DHT22;49084;48.204;16.202;2024-03-25T09:15:29;12.50;79.10
62991;DHT22;49084;48.204;16.202;2024-03-25T09:17:54;12.50;78.80
62991;DHT22;49084;48.204;16.202;2024-03-25T09:20:20;12.40;78.80
62991;DHT22;49084;48.204;16.202;2024-03-25T09:22:49;12.60;78.50
62991;DHT22;49084;48.204;16.202;2024-03-25T09:25:16;13.60;78.10
62991;DHT22;49084;48.204;16.202;2024-03-25T09:27:48;13.50;75.50
62991;DHT22;49084;48.204;16.202;2024-03-25T09:30:15;13.20;76.50
62991;DHT22;49084;48.204;16.202;2024-03-25T09:32:41;13.00;75.80
62991;DHT22;49084;48.204;16.202;2024-03-25T09:35:11;12.80;76.40
62991;DHT22;49084;48.204;16.202;2024-03-25T09:37:37;13.00;77.30
62991;DHT22;49084;48.204;16.202;2024-03-25T09:40:03;13.70;76.00
62991;DHT22;49084;48.204;16.202;2024-03-25T09:42:49;14.10;74.80
62991;DHT22;49084;48.204;16.202;2024-03-25T09:45:18;14.60;72.00
62991;DHT22;49084;48.204;16.202;2024-03-25T09:47:47;14.50;71.50
62991;DHT22;49084;48.204;16.202;2024-03-25T09:50:14;14.90;71.10
62991;DHT22;49084;48.204;16.202;2024-03-25T09:52:48;14.50;71.60
62991;DHT22;49084;48.204;16.202;2024-03-25T09:55:14;15.00;69.20
62991;DHT22;49084;48.204;16.202;2024-03-25T09:57:41;14.30;69.70
62991;DHT22;49084;48.204;16.202;2024-03-25T10:00:08;14.20;70.80
62991;DHT22;49084;48.204;16.202;2024-03-25T10:02:37;13.90;70.40
62991;DHT22;49084;48.204;16.202;2024-03-25T10:05:04;13.40;72.20
62991;DHT22;49084;48.204;16.202;2024-03-25T10:07:30;14.30;70.20
62991;DHT22;49084;48.204;16.202;2024-03-25T10:09:55;14.50;68.50
62991;DHT22;49084;48.204;16.202;2024-03-25T10:12:22;14.60;67.70
62991;DHT22;49084;48.204;16.202;2024-03-25T10:14:47;14.90;69.30
62991;DHT22;49084;48.204;16.202;2024-03-25T10:17:13;14.90;68.20
62991;DHT22;49084;48.204;16.202;2024-03-25T10:19:39;15.20;67.80
62991;DHT22;49084;48.204;16.202;2024-03-25T10:22:05;15.10;66.60
62991;DHT22;49084;48.204;16.202;2024-03-25T10:27:03;15.80;63.50
62991;DHT22;49084;48.204;16.202;2024-03-25T10:29:29;15.00;63.10
62991;DHT22;49084;48.204;16.202;2024-03-25T10:32:02;14.10;64.00
62991;DHT22;49084;48.204;16.202;2024-03-25T10:34:30;13.80;66.50
62991;DHT22;49084;48.204;16.202;2024-03-25T10:36:57;14.20;66.20
62991;DHT22;49084;48.204;16.202;2024-03-25T10:39:27;14.90;63.60
62991;DHT22;49084;48.204;16.202;2024-03-25T10:41:58;15.30;63.60
62991;DHT22;49084;48.204;16.202;2024-03-25T10:44:29;15.80;61.60
62991;DHT22;49084;48.204;16.202;2024-03-25T10:47:01;15.60;61.00
62991;DHT22;49084;48.204;16.202;2024-03-25T10:49:33;15.50;60.60
62991;DHT22;49084;48.204;16.202;2024-03-25T10:52:01;15.80;61.00
62991;DHT22;49084;48.204;16.202;2024-03-25T10:54:30;15.90;59.20
62991;DHT22;49084;48.204;16.202;2024-03-25T10:56:58;15.50;60.00
62991;DHT22;49084;48.204;16.202;2024-03-25T10:59:26;15.10;60.10
62991;DHT22;49084;48.204;16.202;2024-03-25T11:01:52;15.20;60.90
62991;DHT22;49084;48.204;16.202;2024-03-25T11:04:19;15.50;59.50
62991;DHT22;49084;48.204;16.202;2024-03-25T11:06:45;15.30;61.50
62991;DHT22;49084;48.204;16.202;2024-03-25T11:09:10;15.90;59.10
62991;DHT22;49084;48.204;16.202;2024-03-25T11:11:52;16.10;57.30
62991;DHT22;49084;48.204;16.202;2024-03-25T11:14:17;15.50;59.30
62991;DHT22;49084;48.204;16.202;2024-03-25T11:16:43;15.90;59.00
62991;DHT22;49084;48.204;16.202;2024-03-25T11:19:11;16.20;57.90
62991;DHT22;49084;48.204;16.202;2024-03-25T11:21:37;16.70;57.50
62991;DHT22;49084;48.204;16.202;2024-03-25T11:24:08;15.80;57.00
62991;DHT22;49084;48.204;16.202;2024-03-25T11:26:34;15.10;58.60
62991;DHT22;49084;48.204;16.202;2024-03-25T11:29:03;15.00;59.40
62991;DHT22;49084;48.204;16.202;2024-03-25T11:31:30;14.50;60.40
62991;DHT22;49084;48.204;16.202;2024-03-25T11:34:02;13.70;60.60
62991;DHT22;49084;48.204;16.202;2024-03-25T11:36:28;13.50;61.10
62991;DHT22;49084;48.204;16.202;2024-03-25T11:39:14;13.40;61.90
62991;DHT22;49084;48.204;16.202;2024-03-25T11:41:40;13.10;62.60
62991;DHT22;49084;48.204;16.202;2024-03-25T11:44:08;12.80;62.90
62991;DHT22;49084;48.204;16.202;2024-03-25T11:46:36;12.80;63.30
62991;DHT22;49084;48.204;16.202;2024-03-25T11:49:05;12.70;65.10
62991;DHT22;49084;48.204;16.202;2024-03-25T11:51:33;12.80;64.00
62991;DHT22;49084;48.204;16.202;2024-03-25T11:53:58;12.90;62.70
62991;DHT22;49084;48.204;16.202;2024-03-25T11:56:25;13.10;61.90
62991;DHT22;49084;48.204;16.202;2024-03-25T11:58:51;13.30;60.80
62991;DHT22;49084;48.204;16.202;2024-03-25T12:01:17;13.00;61.00
62991;DHT22;49084;48.204;16.202;2024-03-25T12:03:43;12.80;60.80
62991;DHT22;49084;48.204;16.202;2024-03-25T12:06:08;12.50;62.20
62991;DHT22;49084;48.204;16.202;2024-03-25T12:08:34;12.40;63.20
62991;DHT22;49084;48.204;16.202;2024-03-25T12:11:09;13.20;60.30
62991;DHT22;49084;48.204;16.202;2024-03-25T12:13:44;13.10;59.80
62991;DHT22;49084;48.204;16.202;2024-03-25T12:16:10;12.60;60.90
62991;DHT22;49084;48.204;16.202;2024-03-25T12:18:36;12.30;62.60
62991;DHT22;49084;48.204;16.202;2024-03-25T12:21:04;12.10;62.70
62991;DHT22;49084;48.204;16.202;2024-03-25T12:23:33;11.80;62.00
62991;DHT22;49084;48.204;16.202;2024-03-25T12:26:00;11.90;62.00
62991;DHT22;49084;48.204;16.202;2024-03-25T12:28:26;13.50;61.00
62991;DHT22;49084;48.204;16.202;2024-03-25T12:30:55;14.60;58.10
62991;DHT22;49084;48.204;16.202;2024-03-25T12:33:24;14.10;57.50
62991;DHT22;49084;48.204;16.202;2024-03-25T12:35:51;14.60;58.00
62991;DHT22;49084;48.204;16.202;2024-03-25T12:38:30;15.50;56.70
62991;DHT22;49084;48.204;16.202;2024-03-25T12:43:32;15.70;56.10
62991;DHT22;49084;48.204;16.202;2024-03-25T12:45:58;15.80;56.90
62991;DHT22;49084;48.204;16.202;2024-03-25T12:48:24;16.40;55.70
62991;DHT22;49084;48.204;16.202;2024-03-25T12:50:51;15.70;56.60
62991;DHT22;49084;48.204;16.202;2024-03-25T12:53:18;16.30;56.90
62991;DHT22;49084;48.204;16.202;2024-03-25T12:55:44;16.60;55.80
62991;DHT22;49084;48.204;16.202;2024-03-25T12:58:10;16.70;54.50
62991;DHT22;49084;48.204;16.202;2024-03-25T13:00:36;16.20;55.90
62991;DHT22;49084;48.204;16.202;2024-03-25T13:03:01;16.20;56.00
62991;DHT22;49084;48.204;16.202;2024-03-25T13:05:27;16.30;54.10
62991;DHT22;49084;48.204;16.202;2024-03-25T13:07:54;16.10;53.70
62991;DHT22;49084;48.204;16.202;2024-03-25T13:10:20;15.50;55.30
62991;DHT22;49084;48.204;16.202;2024-03-25T13:12:46;15.60;55.90
62991;DHT22;49084;48.204;16.202;2024-03-25T13:15:11;15.90;54.70
62991;DHT22;49084;48.204;16.202;2024-03-25T13:17:37;15.50;55.80
62991;DHT22;49084;48.204;16.202;2024-03-25T13:20:03;15.90;55.10
62991;DHT22;49084;48.204;16.202;2024-03-25T13:22:30;16.00;55.30
62991;DHT22;49084;48.204;16.202;2024-03-25T13:24:58;16.30;55.30
62991;DHT22;49084;48.204;16.202;2024-03-25T13:27:24;16.70;53.40
62991;DHT22;49084;48.204;16.202;2024-03-25T13:29:50;16.30;56.10
62991;DHT22;49084;48.204;16.202;2024-03-25T13:32:18;16.30;56.30
62991;DHT22;49084;48.204;16.202;2024-03-25T13:34:44;15.70;56.60
62991;DHT22;49084;48.204;16.202;2024-03-25T13:37:10;15.90;58.60
62991;DHT22;49084;48.204;16.202;2024-03-25T13:39:35;16.20;56.00
62991;DHT22;49084;48.204;16.202;2024-03-25T13:42:01;16.70;55.10
62991;DHT22;49084;48.204;16.202;2024-03-25T13:44:27;16.50;55.30
62991;DHT22;49084;48.204;16.202;2024-03-25T13:46:54;16.60;53.60
62991;DHT22;49084;48.204;16.202;2024-03-25T13:49:19;16.20;54.30
62991;DHT22;49084;48.204;16.202;2024-03-25T13:51:45;16.60;54.40
62991;DHT22;49084;48.204;16.202;2024-03-25T13:54:11;17.20;53.10
62991;DHT22;49084;48.204;16.202;2024-03-25T13:56:37;17.10;53.50
62991;DHT22;49084;48.204;16.202;2024-03-25T13:59:03;15.30;54.50
62991;DHT22;49084;48.204;16.202;2024-03-25T14:01:29;14.20;56.20
62991;DHT22;49084;48.204;16.202;2024-03-25T14:03:54;14.30;57.40
62991;DHT22;49084;48.204;16.202;2024-03-25T14:06:20;14.90;56.90
62991;DHT22;49084;48.204;16.202;2024-03-25T14:08:46;15.70;55.70
62991;DHT22;49084;48.204;16.202;2024-03-25T14:11:11;16.00;54.80
62991;DHT22;49084;48.204;16.202;2024-03-25T14:13:37;15.90;52.70
62991;DHT22;49084;48.204;16.202;2024-03-25T14:16:03;15.50;53.50
62991;DHT22;49084;48.204;16.202;2024-03-25T14:18:29;15.30;54.60
62991;DHT22;49084;48.204;16.202;2024-03-25T14:20:56;14.80;54.30
62991;DHT22;49084;48.204;16.202;2024-03-25T14:23:22;14.50;55.70
62991;DHT22;49084;48.204;16.202;2024-03-25T14:25:48;14.60;55.90
62991;DHT22;49084;48.204;16.202;2024-03-25T14:28:13;14.90;55.90
62991;DHT22;49084;48.204;16.202;2024-03-25T14:30:39;14.70;54.50
62991;DHT22;49084;48.204;16.202;2024-03-25T14:33:05;14.80;54.70
62991;DHT22;49084;48.204;16.202;2024-03-25T14:35:30;15.10;55.20
62991;DHT22;49084;48.204;16.202;2024-03-25T14:37:56;15.10;54.90
62991;DHT22;49084;48.204;16.202;2024-03-25T14:40:21;14.90;54.40
62991;DHT22;49084;48.204;16.202;2024-03-25T14:42:47;15.10;55.00
62991;DHT22;49084;48.204;16.202;2024-03-25T14:45:13;15.20;54.90
62991;DHT22;49084;48.204;16.202;2024-03-25T14:47:38;15.30;55.00
62991;DHT22;49084;48.204;16.202;2024-03-25T14:50:04;15.70;54.30
62991;DHT22;49084;48.204;16.202;2024-03-25T14:52:32;15.90;52.10
62991;DHT22;49084;48.204;16.202;2024-03-25T14:54:58;16.30;53.50
62991;DHT22;49084;48.204;16.202;2024-03-25T14:57:24;16.50;53.40
62991;DHT22;49084;48.204;16.202;2024-03-25T14:59:49;16.90;52.00
62991;DHT22;49084;48.204;16.202;2024-03-25T15:02:15;17.20;51.90
62991;DHT22;49084;48.204;16.202;2024-03-25T15:04:41;17.50;50.90
62991;DHT22;49084;48.204;16.202;2024-03-25T15:07:10;17.40;51.10
62991;DHT22;49084;48.204;16.202;2024-03-25T15:09:36;17.70;51.40
62991;DHT22;49084;48.204;16.202;2024-03-25T15:12:02;17.40;50.60
62991;DHT22;49084;48.204;16.202;2024-03-25T15:14:28;17.40;51.20
62991;DHT22;49084;48.204;16.202;2024-03-25T15:16:56;17.10;50.40
62991;DHT22;49084;48.204;16.202;2024-03-25T15:19:24;17.00;50.30
62991;DHT22;49084;48.204;16.202;2024-03-25T15:21:49;17.00;50.20
62991;DHT22;49084;48.204;16.202;2024-03-25T15:24:15;17.00;50.80